Time;durP1;ratioP1;P1;durP2;ratioP2;P2;SDS_P1;SDS_P2;PMS_P1;PMS_P2;Temp;Humidity;BMP_temperature;BMP_pressure;BME280_temperature;BME280_humidity;BME280_pressure;Samples;Min_cycle;Max_cycle;Signal;HPM_P1;HPM_P2
2023/01/08 00:01:36;;;;;;;1.50;0.60;;;9.80;99.90;;;;;;5071004;28;20090;-74
2023/01/08 00:04:01;;;;;;;1.48;0.73;;;9.80;99.90;;;;;;5074794;28;20040;-74
2023/01/08 00:06:27;;;;;;;1.63;0.77;;;9.80;99.90;;;;;;5074241;28;20534;-73
2023/01/08 00:08:53;;;;;;;1.90;1.00;;;9.80;99.90;;;;;;5057013;28;20051;-74
2023/01/08 00:11:18;;;;;;;2.17;0.88;;;9.80;99.90;;;;;;5072228;28;20147;-74
2023/01/08 00:13:44;;;;;;;2.53;0.80;;;9.80;99.90;;;;;;5059832;28;20089;-74
2023/01/08 00:16:15;;;;;;;2.28;1.08;;;9.90;99.90;;;;;;5073867;28;20041;-74
2023/01/08 00:18:42;;;;;;;2.03;0.90;;;9.80;99.90;;;;;;5060640;28;20032;-74
2023/01/08 00:21:08;;;;;;;1.88;0.75;;;9.80;99.90;;;;;;5081081;28;20032;-74
2023/01/08 00:23:34;;;;;;;1.83;0.80;;;10.00;99.90;;;;;;5073537;28;20043;-74
2023/01/08 00:26:02;;;;;;;4.05;0.90;;;9.80;99.90;;;;;;5063363;28;20040;-74
2023/01/08 00:28:28;;;;;;;2.20;0.98;;;9.80;99.90;;;;;;5078901;28;20047;-74
2023/01/08 00:30:54;;;;;;;2.05;0.90;;;9.80;99.90;;;;;;5062757;28;20166;-74
2023/01/08 00:33:19;;;;;;;1.33;0.88;;;9.90;99.90;;;;;;5077932;28;20114;-74
2023/01/08 00:35:45;;;;;;;3.03;0.90;;;9.90;99.90;;;;;;5079428;28;20418;-74
2023/01/08 00:38:11;;;;;;;1.80;0.82;;;9.90;99.90;;;;;;5059298;28;20505;-74
2023/01/08 00:40:39;;;;;;;2.22;1.00;;;9.90;99.90;;;;;;5076167;28;20035;-74
2023/01/08 00:43:05;;;;;;;0.95;0.65;;;9.80;99.90;;;;;;5076025;28;20040;-74
2023/01/08 00:45:31;;;;;;;2.08;0.93;;;9.90;99.90;;;;;;5079429;28;20040;-74
2023/01/08 00:47:57;;;;;;;1.95;0.95;;;9.80;99.90;;;;;;5079256;28;20043;-74
2023/01/08 00:50:23;;;;;;;1.85;0.70;;;9.80;99.90;;;;;;5063970;28;20054;-74
2023/01/08 00:52:49;;;;;;;2.80;1.15;;;9.80;99.90;;;;;;5077209;28;20032;-74
2023/01/08 00:55:15;;;;;;;2.53;1.20;;;9.70;99.90;;;;;;5074626;28;20082;-74
2023/01/08 00:57:40;;;;;;;3.42;1.15;;;9.80;99.90;;;;;;5073225;28;20039;-74
2023/01/08 01:00:08;;;;;;;2.75;0.90;;;9.80;99.90;;;;;;5081933;28;20615;-74
2023/01/08 01:02:35;;;;;;;1.73;0.93;;;9.80;99.90;;;;;;5058940;28;20097;-74
2023/01/08 01:05:01;;;;;;;3.00;1.65;;;9.70;99.90;;;;;;5079366;28;20032;-74
2023/01/08 01:07:26;;;;;;;1.70;1.10;;;9.70;99.90;;;;;;5078006;28;20052;-74
2023/01/08 01:09:52;;;;;;;2.40;0.90;;;9.70;99.90;;;;;;5077379;28;20086;-74
2023/01/08 01:12:18;;;;;;;3.22;1.10;;;9.70;99.90;;;;;;5075943;28;20036;-74
2023/01/08 01:14:43;;;;;;;2.70;1.17;;;9.70;99.90;;;;;;5079052;28;20084;-74
2023/01/08 01:17:10;;;;;;;2.38;0.80;;;9.70;99.90;;;;;;5079004;28;20223;-74
2023/01/08 01:19:36;;;;;;;2.20;0.90;;;9.70;99.90;;;;;;5072477;28;20056;-74
2023/01/08 01:22:02;;;;;;;4.90;1.00;;;9.70;99.90;;;;;;5072931;28;20036;-74
2023/01/08 01:24:28;;;;;;;1.25;0.80;;;9.70;99.90;;;;;;5058029;28;20647;-74
2023/01/08 01:26:55;;;;;;;2.70;0.95;;;9.70;99.90;;;;;;5077729;28;20063;-74
2023/01/08 01:29:21;;;;;;;2.83;0.93;;;9.70;99.90;;;;;;5059316;28;20055;-74
2023/01/08 01:31:47;;;;;;;1.55;0.80;;;9.70;99.90;;;;;;5074916;28;20036;-74
2023/01/08 01:34:12;;;;;;;1.23;0.70;;;9.70;99.90;;;;;;5080989;28;20044;-74
2023/01/08 01:36:38;;;;;;;1.60;0.77;;;9.70;99.90;;;;;;5078180;28;20447;-74
2023/01/08 01:39:04;;;;;;;2.05;0.98;;;9.70;99.90;;;;;;5071323;28;20078;-74
2023/01/08 01:41:38;;;;;;;2.25;0.63;;;9.70;99.90;;;;;;5072666;28;20047;-74
2023/01/08 01:44:34;;;;;;;1.60;0.80;;;9.70;99.90;;;;;;5077440;28;20492;-74
2023/01/08 01:47:03;;;;;;;2.42;0.55;;;9.60;99.90;;;;;;5076881;28;20076;-74
2023/01/08 01:49:29;;;;;;;1.40;0.40;;;9.60;99.90;;;;;;5077863;28;20044;-73
2023/01/08 01:52:01;;;;;;;0.98;0.35;;;9.60;99.90;;;;;;5076742;28;20106;-74
2023/01/08 01:54:28;;;;;;;0.55;0.30;;;9.60;99.90;;;;;;5081165;28;20440;-74
2023/01/08 01:56:55;;;;;;;2.78;1.00;;;9.50;99.90;;;;;;5068646;28;20123;-74
2023/01/08 01:59:20;;;;;;;1.13;0.32;;;9.50;99.90;;;;;;5075268;28;20552;-74
2023/01/08 02:01:46;;;;;;;0.70;0.30;;;9.50;99.90;;;;;;5077696;28;20157;-74
2023/01/08 02:04:12;;;;;;;4.18;0.38;;;9.40;99.90;;;;;;5076513;28;20046;-74
2023/01/08 02:06:52;;;;;;;0.57;0.20;;;9.40;99.90;;;;;;5078593;28;20060;-73
2023/01/08 02:09:34;;;;;;;1.48;0.50;;;9.40;99.90;;;;;;5061727;28;20109;-74
2023/01/08 02:12:18;;;;;;;2.60;0.50;;;9.40;99.90;;;;;;5057082;28;20127;-74
2023/01/08 02:15:03;;;;;;;0.77;0.32;;;9.30;99.90;;;;;;5077952;28;20044;-74
2023/01/08 02:17:35;;;;;;;1.38;0.35;;;9.30;99.90;;;;;;5109894;27;20104;-74
2023/01/08 02:20:09;;;;;;;0.38;0.22;;;9.20;99.90;;;;;;5065701;28;20040;-74
2023/01/08 02:23:22;;;;;;;0.50;0.30;;;9.10;99.90;;;;;;5076868;28;20032;-74
2023/01/08 02:25:57;;;;;;;3.10;0.32;;;9.20;99.90;;;;;;5080562;28;20036;-74
2023/01/08 02:28:24;;;;;;;0.30;0.20;;;9.10;99.90;;;;;;5062944;28;20040;-74
2023/01/08 02:30:50;;;;;;;0.55;0.35;;;9.10;99.90;;;;;;5081207;28;20040;-74
2023/01/08 02:33:16;;;;;;;1.83;0.35;;;9.10;99.90;;;;;;5099765;28;20539;-74
2023/01/08 02:35:50;;;;;;;0.77;0.38;;;9.10;99.90;;;;;;5084172;28;20048;-74
2023/01/08 02:38:17;;;;;;;1.38;0.35;;;9.10;99.90;;;;;;5081555;28;20115;-74
2023/01/08 02:41:02;;;;;;;1.65;0.38;;;9.10;99.90;;;;;;5081515;28;20044;-74
2023/01/08 02:43:41;;;;;;;2.17;0.70;;;9.10;99.90;;;;;;5077068;28;20036;-74
2023/01/08 02:46:16;;;;;;;2.55;0.47;;;9.10;99.90;;;;;;5078281;28;20051;-74
2023/01/08 02:48:46;;;;;;;2.53;0.50;;;9.00;99.90;;;;;;5079653;28;20081;-74
2023/01/08 02:51:22;;;;;;;7.78;0.50;;;9.00;99.90;;;;;;5081363;28;20185;-74
2023/01/08 02:53:51;;;;;;;0.40;0.20;;;9.10;99.90;;;;;;5063477;28;20036;-74
2023/01/08 02:56:22;;;;;;;2.10;0.40;;;9.00;99.90;;;;;;5080215;28;20041;-74
2023/01/08 02:58:49;;;;;;;0.68;0.30;;;9.00;99.90;;;;;;5062160;28;20032;-74
2023/01/08 03:01:16;;;;;;;1.85;0.38;;;9.00;99.90;;;;;;5079400;28;20036;-74
2023/01/08 03:03:48;;;;;;;2.80;0.40;;;9.00;99.90;;;;;;5079568;28;20532;-74
2023/01/08 03:06:17;;;;;;;1.48;0.60;;;9.00;99.90;;;;;;5078912;28;20060;-74
2023/01/08 03:08:45;;;;;;;0.70;0.35;;;9.00;99.90;;;;;;5062095;28;20036;-74
2023/01/08 03:11:20;;;;;;;0.57;0.30;;;9.00;99.90;;;;;;5077890;28;20111;-74
2023/01/08 03:14:04;;;;;;;0.30;0.20;;;9.00;99.90;;;;;;5077712;28;20039;-74
2023/01/08 03:16:36;;;;;;;2.45;0.43;;;9.00;99.90;;;;;;5060956;28;20040;-74
2023/01/08 03:19:10;;;;;;;2.25;0.38;;;9.00;99.90;;;;;;5081894;28;20051;-74
2023/01/08 03:21:37;;;;;;;2.17;0.40;;;8.90;99.90;;;;;;5080623;28;20401;-74
2023/01/08 03:24:05;;;;;;;4.78;0.40;;;9.00;99.90;;;;;;5058607;28;20032;-74
2023/01/08 03:26:32;;;;;;;2.05;0.35;;;8.90;99.90;;;;;;5079908;28;20044;-74
2023/01/08 03:28:58;;;;;;;0.82;0.20;;;9.00;99.90;;;;;;5062178;28;20051;-74
2023/01/08 03:31:27;;;;;;;0.82;0.43;;;8.90;99.90;;;;;;5079855;28;20145;-74
2023/01/08 03:33:54;;;;;;;1.75;0.50;;;9.00;99.90;;;;;;5081661;28;20056;-74
2023/01/08 03:36:24;;;;;;;2.50;0.35;;;9.00;99.90;;;;;;5080914;28;20044;-74
2023/01/08 03:38:58;;;;;;;0.93;0.40;;;9.00;99.90;;;;;;5077682;28;20366;-74
2023/01/08 03:41:24;;;;;;;1.75;0.50;;;9.00;99.90;;;;;;5079471;28;20056;-74
2023/01/08 03:43:50;;;;;;;0.43;0.20;;;8.90;99.90;;;;;;5062893;28;20047;-74
2023/01/08 03:46:22;;;;;;;1.98;0.40;;;9.00;99.90;;;;;;5081709;28;20409;-74
2023/01/08 03:48:49;;;;;;;1.85;0.70;;;9.00;99.90;;;;;;5080161;28;20044;-74
2023/01/08 03:51:14;;;;;;;1.23;0.52;;;8.90;99.90;;;;;;5076342;28;20043;-74
2023/01/08 03:53:40;;;;;;;4.38;0.73;;;9.00;99.90;;;;;;5071783;28;20460;-74
2023/01/08 03:56:06;;;;;;;1.52;0.63;;;8.90;99.90;;;;;;5062463;28;20565;-74
2023/01/08 03:58:31;;;;;;;1.15;0.60;;;8.90;99.90;;;;;;5073966;28;20060;-74
2023/01/08 04:00:57;;;;;;;1.45;0.80;;;9.00;99.90;;;;;;5077840;28;20029;-74
2023/01/08 04:03:23;;;;;;;2.53;0.80;;;9.00;99.90;;;;;;5077129;28;20068;-74
2023/01/08 04:05:49;;;;;;;2.88;0.90;;;9.00;99.90;;;;;;5079187;28;20041;-74
2023/01/08 04:08:14;;;;;;;2.97;0.80;;;9.00;99.90;;;;;;5077817;28;20052;-74
2023/01/08 04:10:40;;;;;;;2.35;0.90;;;9.10;99.90;;;;;;5072079;28;20036;-74
2023/01/08 04:13:06;;;;;;;1.45;0.77;;;9.10;99.90;;;;;;5075639;28;20497;-74
2023/01/08 04:15:32;;;;;;;1.52;1.00;;;9.10;99.90;;;;;;5060255;28;20040;-74
2023/01/08 04:17:58;;;;;;;1.25;0.47;;;9.10;99.90;;;;;;5076757;28;20385;-74
2023/01/08 04:20:23;;;;;;;1.80;0.93;;;9.10;99.90;;;;;;5078494;28;20038;-74
2023/01/08 04:22:49;;;;;;;1.50;0.80;;;9.20;99.90;;;;;;5077529;28;20036;-74
2023/01/08 04:25:14;;;;;;;2.85;0.93;;;9.10;99.90;;;;;;5064846;28;20057;-74
2023/01/08 04:27:40;;;;;;;1.33;0.75;;;9.20;99.90;;;;;;5078552;28;20050;-74
2023/01/08 04:30:06;;;;;;;1.85;0.80;;;9.20;99.90;;;;;;5073555;28;20059;-74
2023/01/08 04:32:32;;;;;;;1.58;0.60;;;9.20;99.90;;;;;;5077169;28;20024;-74
2023/01/08 04:34:57;;;;;;;0.73;0.40;;;9.20;99.90;;;;;;5075883;28;20032;-75
2023/01/08 04:37:23;;;;;;;1.55;0.85;;;9.20;99.90;;;;;;5059344;28;20071;-74
2023/01/08 04:39:49;;;;;;;2.17;0.80;;;9.20;99.90;;;;;;5073875;28;20216;-74
2023/01/08 04:42:14;;;;;;;1.13;0.57;;;9.20;99.90;;;;;;5079449;28;20084;-74
2023/01/08 04:44:40;;;;;;;1.70;0.50;;;9.20;99.90;;;;;;5076323;28;20121;-74
2023/01/08 04:47:05;;;;;;;1.08;0.50;;;9.20;99.90;;;;;;5077155;28;20100;-74
2023/01/08 04:49:31;;;;;;;0.88;0.50;;;9.20;99.90;;;;;;5077070;28;20039;-74
2023/01/08 04:51:56;;;;;;;1.42;0.60;;;9.20;99.90;;;;;;5078398;28;20039;-74
2023/01/08 04:54:22;;;;;;;1.45;0.50;;;9.20;99.90;;;;;;5062030;28;20036;-74
2023/01/08 04:56:51;;;;;;;3.25;0.70;;;9.20;99.90;;;;;;5061042;28;20503;-74
2023/01/08 04:59:16;;;;;;;1.77;0.55;;;9.20;99.90;;;;;;5058598;28;20028;-74
2023/01/08 05:01:42;;;;;;;2.08;0.77;;;9.10;99.90;;;;;;5074839;28;20097;-74
2023/01/08 05:04:10;;;;;;;0.60;0.40;;;9.10;99.90;;;;;;5058645;28;20029;-74
2023/01/08 05:06:36;;;;;;;0.60;0.35;;;9.10;99.90;;;;;;5074334;28;20052;-74
2023/01/08 05:09:02;;;;;;;2.50;1.02;;;9.10;99.90;;;;;;5082741;28;20574;-74
2023/01/08 05:11:28;;;;;;;1.45;0.47;;;9.10;99.90;;;;;;5075453;28;20047;-74
2023/01/08 05:13:54;;;;;;;0.90;0.60;;;9.10;99.90;;;;;;5077636;28;20044;-74
2023/01/08 05:16:20;;;;;;;1.63;0.60;;;9.10;99.90;;;;;;5076989;28;20065;-74
2023/01/08 05:18:45;;;;;;;0.80;0.30;;;9.10;99.90;;;;;;5058335;28;20025;-74
2023/01/08 05:21:12;;;;;;;1.83;0.65;;;9.10;99.90;;;;;;5077460;28;20153;-74
2023/01/08 05:23:38;;;;;;;1.13;0.50;;;9.10;99.90;;;;;;5078717;28;20123;-74
2023/01/08 05:26:05;;;;;;;0.82;0.50;;;9.10;99.90;;;;;;5075065;28;20598;-74
2023/01/08 05:28:31;;;;;;;1.65;0.50;;;9.10;99.90;;;;;;5077656;28;20064;-74
2023/01/08 05:30:57;;;;;;;1.00;0.60;;;9.00;99.90;;;;;;5056306;28;20083;-74
2023/01/08 05:33:24;;;;;;;2.80;0.70;;;9.00;99.90;;;;;;5075838;28;20090;-74
2023/01/08 05:35:49;;;;;;;1.25;0.70;;;9.00;99.90;;;;;;5092649;28;20033;-74
2023/01/08 05:38:15;;;;;;;1.10;0.50;;;9.00;99.90;;;;;;5061141;28;20035;-74
2023/01/08 05:40:40;;;;;;;2.03;0.93;;;9.00;99.90;;;;;;5077248;28;20032;-74
2023/01/08 05:43:06;;;;;;;3.58;0.40;;;9.00;99.90;;;;;;5080174;28;20036;-75
2023/01/08 05:45:32;;;;;;;3.10;0.75;;;8.90;99.90;;;;;;5077543;28;20190;-74
2023/01/08 05:47:58;;;;;;;0.95;0.55;;;9.00;99.90;;;;;;5075993;28;20036;-74
2023/01/08 05:50:24;;;;;;;2.92;0.55;;;9.00;99.90;;;;;;5078972;28;20122;-74
2023/01/08 05:52:49;;;;;;;3.05;0.88;;;8.90;99.90;;;;;;5083458;28;20063;-74
2023/01/08 05:55:15;;;;;;;1.67;0.50;;;9.00;99.90;;;;;;5081841;28;20079;-74
2023/01/08 05:57:40;;;;;;;1.77;0.45;;;8.90;99.90;;;;;;5081204;28;20077;-74
2023/01/08 06:00:08;;;;;;;0.90;0.40;;;9.00;99.90;;;;;;5082460;28;20538;-74
2023/01/08 06:02:33;;;;;;;1.23;0.52;;;8.90;99.90;;;;;;5092688;28;20044;-74
2023/01/08 06:04:59;;;;;;;1.40;0.70;;;8.90;99.90;;;;;;5081951;28;20404;-74
2023/01/08 06:07:25;;;;;;;0.88;0.50;;;8.90;99.90;;;;;;5079354;28;20067;-74
2023/01/08 06:09:50;;;;;;;1.15;0.35;;;8.90;99.90;;;;;;5081558;28;20047;-74
2023/01/08 06:12:16;;;;;;;0.88;0.52;;;8.90;99.90;;;;;;5062778;28;20135;-74
2023/01/08 06:14:41;;;;;;;1.02;0.60;;;8.90;99.90;;;;;;5063734;28;20969;-74
2023/01/08 06:17:07;;;;;;;1.02;0.50;;;8.90;99.90;;;;;;5060267;28;20047;-74
2023/01/08 06:19:33;;;;;;;0.75;0.60;;;8.90;99.90;;;;;;5101471;27;20052;-74
2023/01/08 06:21:58;;;;;;;2.17;0.70;;;8.90;99.90;;;;;;5097503;28;20449;-74
2023/01/08 06:24:24;;;;;;;1.20;0.60;;;8.80;99.90;;;;;;5079531;28;20028;-74
2023/01/08 06:26:49;;;;;;;1.35;0.80;;;8.90;99.90;;;;;;5075814;28;20062;-74
2023/01/08 06:29:15;;;;;;;1.42;0.60;;;8.90;99.90;;;;;;5083527;28;20039;-74
2023/01/08 06:31:41;;;;;;;1.35;0.55;;;8.80;99.90;;;;;;5079447;28;20772;-74
2023/01/08 06:34:06;;;;;;;2.33;0.82;;;8.80;99.90;;;;;;5105496;27;20039;-74
2023/01/08 06:36:32;;;;;;;1.00;0.32;;;8.80;99.90;;;;;;5076954;28;20032;-74
2023/01/08 06:38:57;;;;;;;1.00;0.50;;;8.80;99.90;;;;;;5062326;28;20040;-74
2023/01/08 06:41:23;;;;;;;0.73;0.40;;;8.80;99.90;;;;;;5082499;28;20050;-74
2023/01/08 06:43:49;;;;;;;1.17;0.40;;;8.70;99.90;;;;;;5079245;28;20090;-74
2023/01/08 06:46:14;;;;;;;1.70;0.50;;;8.80;99.90;;;;;;5081367;28;20043;-74
2023/01/08 06:48:40;;;;;;;0.90;0.43;;;8.70;99.90;;;;;;5078560;28;20520;-74
2023/01/08 06:51:06;;;;;;;0.98;0.50;;;8.70;99.90;;;;;;5062816;28;20064;-74
2023/01/08 06:53:31;;;;;;;0.95;0.32;;;8.70;99.90;;;;;;5063551;28;20040;-74
2023/01/08 06:55:57;;;;;;;1.30;0.47;;;8.70;99.90;;;;;;5079369;28;20043;-74
2023/01/08 06:58:25;;;;;;;1.60;0.60;;;8.70;99.90;;;;;;5081263;28;20028;-74
2023/01/08 07:00:50;;;;;;;1.15;0.60;;;8.70;99.90;;;;;;5081591;28;20085;-74
2023/01/08 07:03:16;;;;;;;0.47;0.30;;;8.70;99.90;;;;;;5061186;28;20446;-74
2023/01/08 07:05:42;;;;;;;0.57;0.30;;;8.60;99.90;;;;;;5060317;28;20618;-74
2023/01/08 07:08:14;;;;;;;2.33;0.52;;;8.60;99.90;;;;;;5080387;28;20049;-74
2023/01/08 07:10:41;;;;;;;0.93;0.50;;;8.60;99.90;;;;;;5077088;28;20044;-74
2023/01/08 07:13:07;;;;;;;0.50;0.28;;;8.60;99.90;;;;;;5081026;28;20545;-74
2023/01/08 07:15:35;;;;;;;0.45;0.28;;;8.60;99.90;;;;;;5074639;28;20673;-74
2023/01/08 07:18:04;;;;;;;2.00;0.28;;;8.60;99.90;;;;;;5087007;28;20048;-74
2023/01/08 07:20:31;;;;;;;1.60;0.40;;;8.50;99.90;;;;;;5081343;28;20028;-74
2023/01/08 07:23:03;;;;;;;1.05;0.40;;;8.60;99.90;;;;;;5079751;28;20040;-74
2023/01/08 07:25:29;;;;;;;1.08;0.63;;;8.60;99.90;;;;;;5077937;28;20063;-74
2023/01/08 07:27:55;;;;;;;1.30;0.43;;;8.60;99.90;;;;;;5079107;28;20033;-74
2023/01/08 07:30:21;;;;;;;0.95;0.30;;;8.50;99.90;;;;;;5077787;28;20032;-74
2023/01/08 07:32:46;;;;;;;2.03;0.43;;;8.50;99.90;;;;;;5078034;28;20135;-74
2023/01/08 07:35:12;;;;;;;0.80;0.40;;;8.50;99.90;;;;;;5060499;28;20090;-74
2023/01/08 07:37:41;;;;;;;1.88;0.50;;;8.50;99.90;;;;;;5064136;28;20039;-74
2023/01/08 07:40:09;;;;;;;0.50;0.30;;;8.50;99.90;;;;;;5062898;28;20031;-74
2023/01/08 07:42:35;;;;;;;0.85;0.45;;;8.50;99.90;;;;;;5074426;28;20425;-74
2023/01/08 07:45:01;;;;;;;0.80;0.35;;;8.60;99.90;;;;;;5079044;28;20051;-74
2023/01/08 07:47:27;;;;;;;2.10;0.60;;;8.50;99.90;;;;;;5078796;28;20406;-74
2023/01/08 07:49:52;;;;;;;2.25;0.57;;;8.50;99.90;;;;;;5079726;28;20047;-74
2023/01/08 07:52:18;;;;;;;1.30;0.43;;;8.50;99.90;;;;;;5077165;28;20039;-74
2023/01/08 07:54:43;;;;;;;1.75;0.52;;;8.50;99.90;;;;;;5083610;28;20122;-74
2023/01/08 07:57:09;;;;;;;1.30;0.60;;;8.50;99.90;;;;;;5076258;28;20044;-74
2023/01/08 07:59:34;;;;;;;1.70;0.90;;;8.50;99.90;;;;;;5077877;28;20046;-74
2023/01/08 08:02:00;;;;;;;2.78;0.82;;;8.50;99.90;;;;;;5074784;28;20481;-74
2023/01/08 08:04:26;;;;;;;3.83;1.00;;;8.50;99.90;;;;;;5073234;28;20028;-74
2023/01/08 08:06:53;;;;;;;2.08;0.60;;;8.40;99.90;;;;;;5077171;28;20056;-74
2023/01/08 08:09:19;;;;;;;2.83;0.85;;;8.40;99.90;;;;;;5088182;28;20069;-75
2023/01/08 08:11:44;;;;;;;1.38;0.52;;;8.40;99.90;;;;;;5061407;28;20490;-74
2023/01/08 08:14:10;;;;;;;1.65;0.65;;;8.40;99.90;;;;;;5073420;28;20063;-74
2023/01/08 08:16:35;;;;;;;0.95;0.30;;;8.30;99.90;;;;;;5075225;28;20644;-74
2023/01/08 08:19:01;;;;;;;2.58;0.60;;;8.30;99.90;;;;;;5101033;27;20645;-74
2023/01/08 08:21:28;;;;;;;1.45;0.60;;;8.30;99.90;;;;;;5073425;28;20028;-74
2023/01/08 08:23:54;;;;;;;1.48;0.35;;;8.20;99.90;;;;;;5069377;28;20048;-75
2023/01/08 08:26:20;;;;;;;1.38;0.50;;;8.30;99.90;;;;;;5054314;28;20553;-74
2023/01/08 08:28:45;;;;;;;1.95;0.60;;;8.20;99.90;;;;;;5070062;28;20128;-74
2023/01/08 08:31:11;;;;;;;1.02;0.45;;;8.20;99.90;;;;;;5066838;28;20032;-75
2023/01/08 08:33:36;;;;;;;1.88;0.70;;;8.20;99.90;;;;;;5062122;28;20054;-74
2023/01/08 08:36:02;;;;;;;0.85;0.40;;;8.20;99.90;;;;;;5095532;27;20044;-75
2023/01/08 08:38:28;;;;;;;3.53;0.50;;;8.20;99.90;;;;;;5077950;28;20056;-75
2023/01/08 08:40:53;;;;;;;2.38;0.60;;;8.20;99.90;;;;;;5073649;28;20044;-75
2023/01/08 08:43:19;;;;;;;1.17;0.40;;;8.20;99.90;;;;;;5073181;28;20457;-74
2023/01/08 08:45:44;;;;;;;0.93;0.45;;;8.20;99.90;;;;;;5068664;28;20048;-75
2023/01/08 08:48:10;;;;;;;0.90;0.30;;;8.20;99.90;;;;;;5074295;28;20110;-75
2023/01/08 08:50:37;;;;;;;1.27;0.50;;;8.20;99.90;;;;;;5059760;28;20485;-75
2023/01/08 08:53:04;;;;;;;0.77;0.30;;;8.20;99.90;;;;;;5079836;28;20040;-75
2023/01/08 08:55:29;;;;;;;0.70;0.28;;;8.20;99.90;;;;;;5082473;28;20052;-75
2023/01/08 08:58:11;;;;;;;1.90;0.60;;;8.20;99.90;;;;;;5080966;28;20043;-75
2023/01/08 09:00:38;;;;;;;1.85;0.40;;;8.20;99.90;;;;;;5075432;28;20097;-75
2023/01/08 09:03:04;;;;;;;1.23;0.38;;;8.20;99.90;;;;;;5071660;28;20184;-76
2023/01/08 09:05:30;;;;;;;2.05;0.63;;;8.20;99.90;;;;;;5084457;28;20040;-76
2023/01/08 09:07:56;;;;;;;0.75;0.28;;;8.20;99.90;;;;;;5079701;28;20106;-76
2023/01/08 09:10:22;;;;;;;1.02;0.43;;;8.20;99.90;;;;;;5071824;28;20036;-76
2023/01/08 09:12:48;;;;;;;1.35;0.60;;;8.20;99.90;;;;;;5052737;28;20058;-76
2023/01/08 09:15:14;;;;;;;0.70;0.40;;;8.20;99.90;;;;;;5052711;28;20081;-81
2023/01/08 09:17:39;;;;;;;1.88;0.40;;;8.20;99.90;;;;;;5049393;28;20041;-80
2023/01/08 09:20:05;;;;;;;1.60;0.57;;;8.20;99.90;;;;;;5073340;28;20029;-75
2023/01/08 09:22:31;;;;;;;0.75;0.40;;;8.30;99.90;;;;;;5050831;28;20490;-77
2023/01/08 09:24:57;;;;;;;1.13;0.50;;;8.20;99.90;;;;;;5052689;28;20482;-76
2023/01/08 09:27:23;;;;;;;3.03;0.60;;;8.30;99.90;;;;;;5072153;28;20029;-76
2023/01/08 09:29:48;;;;;;;1.08;0.52;;;8.30;99.90;;;;;;5085308;27;20032;-76
2023/01/08 09:32:14;;;;;;;2.08;0.40;;;8.30;99.90;;;;;;5070691;28;20039;-76
2023/01/08 09:34:39;;;;;;;2.83;0.68;;;8.30;99.90;;;;;;5056462;28;20479;-77
2023/01/08 09:37:05;;;;;;;1.23;0.32;;;8.30;99.90;;;;;;5074131;28;20104;-76
2023/01/08 09:39:32;;;;;;;0.98;0.25;;;8.30;99.90;;;;;;5079549;28;20405;-76
2023/01/08 09:42:01;;;;;;;0.30;0.20;;;8.30;99.90;;;;;;5077558;28;20033;-76
2023/01/08 09:44:32;;;;;;;0.55;0.32;;;8.30;99.90;;;;;;5056855;28;20661;-76
2023/01/08 09:46:59;;;;;;;1.13;0.45;;;8.40;99.90;;;;;;5078774;28;20485;-76
2023/01/08 09:49:35;;;;;;;2.08;0.93;;;8.30;99.90;;;;;;5083305;28;20074;-76
2023/01/08 09:52:01;;;;;;;1.05;0.50;;;8.30;99.90;;;;;;5068470;28;20416;-76
2023/01/08 09:54:26;;;;;;;0.93;0.40;;;8.30;99.90;;;;;;5083084;28;20031;-76
2023/01/08 09:56:53;;;;;;;2.20;0.60;;;8.40;99.90;;;;;;5083765;28;20508;-76
2023/01/08 09:59:19;;;;;;;0.93;0.25;;;8.40;99.90;;;;;;5079574;28;20106;-77
2023/01/08 10:01:45;;;;;;;0.95;0.40;;;8.40;99.90;;;;;;5054914;28;20420;-77
2023/01/08 10:04:25;;;;;;;0.80;0.22;;;8.40;99.90;;;;;;5082195;28;20028;-76
2023/01/08 10:07:04;;;;;;;1.08;0.30;;;8.40;99.90;;;;;;5055828;28;20221;-76
2023/01/08 10:09:31;;;;;;;1.30;0.40;;;8.50;99.90;;;;;;5078373;28;20169;-76
2023/01/08 10:12:01;;;;;;;0.70;0.20;;;8.40;99.90;;;;;;5063950;28;20044;-76
2023/01/08 10:14:38;;;;;;;5.13;0.88;;;8.50;99.90;;;;;;5083681;28;20059;-76
2023/01/08 10:17:30;;;;;;;2.53;0.60;;;8.50;99.90;;;;;;5084154;28;20420;-76
2023/01/08 10:19:56;;;;;;;1.83;0.80;;;8.50;99.90;;;;;;5070938;28;20044;-76
2023/01/08 10:22:24;;;;;;;0.63;0.38;;;8.50;99.90;;;;;;5077390;28;20601;-77
2023/01/08 10:24:50;;;;;;;1.25;0.50;;;8.50;99.90;;;;;;5085568;28;20137;-77
2023/01/08 10:27:22;;;;;;;1.27;0.35;;;8.50;99.90;;;;;;5082123;28;20040;-77
2023/01/08 10:29:51;;;;;;;2.72;0.45;;;8.50;99.90;;;;;;5072951;28;20115;-77
2023/01/08 10:32:28;;;;;;;1.20;0.57;;;8.60;99.90;;;;;;5061559;28;20501;-76
2023/01/08 10:35:01;;;;;;;1.52;0.57;;;8.60;99.90;;;;;;5079552;28;20040;-76
2023/01/08 10:37:43;;;;;;;1.17;0.28;;;8.60;99.90;;;;;;5053499;28;20591;-77
2023/01/08 10:40:23;;;;;;;1.67;0.50;;;8.60;99.90;;;;;;5066829;28;20498;-77
2023/01/08 10:42:50;;;;;;;1.77;0.60;;;8.60;99.90;;;;;;5081078;28;20040;-77
2023/01/08 10:45:22;;;;;;;2.80;0.50;;;8.60;99.90;;;;;;5064767;28;20079;-77
2023/01/08 10:47:51;;;;;;;0.15;0.15;;;8.60;99.90;;;;;;5069787;28;20036;-77
2023/01/08 10:50:29;;;;;;;0.88;0.43;;;8.60;99.90;;;;;;5066705;28;20032;-77
2023/01/08 10:52:57;;;;;;;1.95;0.85;;;8.60;99.90;;;;;;5077162;28;20485;-77
2023/01/08 10:55:25;;;;;;;0.95;0.40;;;8.60;99.90;;;;;;5079147;28;20420;-77
2023/01/08 10:58:03;;;;;;;0.98;0.20;;;8.60;99.90;;;;;;5058559;28;20032;-77
2023/01/08 11:00:31;;;;;;;0.77;0.35;;;8.60;99.90;;;;;;5079670;28;20040;-77
2023/01/08 11:03:07;;;;;;;1.50;0.50;;;8.70;99.90;;;;;;5075756;28;20037;-77
2023/01/08 11:05:38;;;;;;;2.10;0.70;;;8.70;99.90;;;;;;5081076;28;20530;-77
2023/01/08 11:08:15;;;;;;;2.35;1.02;;;8.70;99.90;;;;;;5073607;28;20044;-77
2023/01/08 11:10:41;;;;;;;3.92;0.60;;;8.70;99.90;;;;;;5072341;28;20040;-77
2023/01/08 11:13:14;;;;;;;4.07;0.45;;;8.70;99.90;;;;;;5074392;28;20499;-77
2023/01/08 11:15:40;;;;;;;2.00;0.40;;;8.80;99.90;;;;;;5077349;28;20485;-77
2023/01/08 11:18:21;;;;;;;6.60;0.50;;;8.70;99.90;;;;;;5079657;28;20051;-76
2023/01/08 11:20:49;;;;;;;3.28;0.50;;;8.70;99.90;;;;;;5058345;28;20082;-77
2023/01/08 11:23:23;;;;;;;2.03;0.40;;;8.70;99.90;;;;;;5076787;28;20502;-78
2023/01/08 11:26:06;;;;;;;1.92;0.75;;;8.80;99.90;;;;;;5097252;27;20044;-78
2023/01/08 11:28:47;;;;;;;0.60;0.60;;;8.70;99.90;;;;;;5075430;28;20044;-77
2023/01/08 11:31:44;;;;;;;3.47;0.47;;;8.80;99.90;;;;;;5054614;28;20489;-77
2023/01/08 11:34:43;;;;;;;2.47;0.80;;;8.80;99.90;;;;;;5069752;28;20139;-77
2023/01/08 11:37:25;;;;;;;1.08;0.28;;;8.80;99.90;;;;;;5084341;28;20044;-78
2023/01/08 11:39:52;;;;;;;0.82;0.40;;;8.90;99.90;;;;;;5072966;28;20036;-78
2023/01/08 11:42:46;;;;;;;1.85;0.50;;;8.90;99.90;;;;;;5067103;28;20447;-78
2023/01/08 11:45:14;;;;;;;1.00;0.40;;;8.90;99.90;;;;;;5078841;28;20040;-78
2023/01/08 11:48:05;;;;;;;2.00;0.60;;;9.00;99.90;;;;;;5088069;28;20063;-78
2023/01/08 11:50:54;;;;;;;3.53;0.75;;;9.00;99.90;;;;;;5070869;28;20044;-78
2023/01/08 11:53:40;;;;;;;1.52;0.30;;;9.00;99.90;;;;;;5069055;28;20051;-78
2023/01/08 11:56:11;;;;;;;0.55;0.30;;;9.00;99.90;;;;;;5058611;28;20036;-82
2023/01/08 11:59:08;;;;;;;1.58;0.57;;;9.00;99.90;;;;;;5061737;28;20401;-78
2023/01/08 12:01:50;;;;;;;0.63;0.30;;;9.10;99.90;;;;;;5072789;28;20036;-77
2023/01/08 12:04:41;;;;;;;3.35;0.80;;;9.10;99.90;;;;;;5057145;28;20040;-77
2023/01/08 12:07:33;;;;;;;0.70;0.40;;;9.10;99.90;;;;;;5073203;28;20055;-77
2023/01/08 12:10:18;;;;;;;4.32;0.60;;;9.10;99.90;;;;;;5087918;28;20040;-77
2023/01/08 12:13:13;;;;;;;1.13;0.50;;;9.20;99.90;;;;;;5072289;28;20355;-77
2023/01/08 12:16:05;;;;;;;1.63;0.65;;;9.20;99.90;;;;;;5083021;28;20469;-77
2023/01/08 12:18:34;;;;;;;2.42;0.60;;;9.20;99.90;;;;;;5069615;28;20047;-77
2023/01/08 12:21:32;;;;;;;2.00;0.40;;;9.20;99.90;;;;;;5068417;28;20045;-77
2023/01/08 12:24:17;;;;;;;1.27;0.47;;;9.10;99.90;;;;;;5042983;28;20055;-77
2023/01/08 12:27:04;;;;;;;2.70;0.52;;;9.10;99.90;;;;;;5051502;28;20591;-77
2023/01/08 12:29:51;;;;;;;4.35;0.60;;;9.10;99.90;;;;;;5051915;28;20505;-77
2023/01/08 12:32:53;;;;;;;1.20;0.40;;;9.10;99.90;;;;;;5067543;28;20055;-77
2023/01/08 12:35:26;;;;;;;0.80;0.32;;;9.10;99.90;;;;;;5054928;28;20048;-77
2023/01/08 12:38:03;;;;;;;2.88;0.50;;;9.10;99.90;;;;;;5068603;28;20141;-77
2023/01/08 12:40:31;;;;;;;1.75;0.63;;;9.10;99.90;;;;;;5056960;28;20036;-77
2023/01/08 12:42:59;;;;;;;3.67;0.80;;;9.10;99.90;;;;;;5051118;28;20040;-77
2023/01/08 12:45:45;;;;;;;1.92;0.60;;;9.10;99.90;;;;;;5051495;28;20545;-77
2023/01/08 12:48:15;;;;;;;4.40;0.52;;;9.10;99.90;;;;;;5068044;28;20040;-77
2023/01/08 12:50:56;;;;;;;1.65;0.50;;;9.10;99.90;;;;;;5068305;28;20066;-77
2023/01/08 12:53:51;;;;;;;3.88;0.80;;;9.10;99.90;;;;;;5068007;28;20035;-77
2023/01/08 12:56:45;;;;;;;1.73;0.50;;;9.20;99.90;;;;;;5087444;28;20044;-77
2023/01/08 12:59:31;;;;;;;6.03;0.82;;;9.20;99.90;;;;;;5081605;28;20059;-77
2023/01/08 13:02:17;;;;;;;5.15;0.65;;;9.20;99.90;;;;;;5070968;28;20051;-77
2023/01/08 13:04:44;;;;;;;;;;;9.20;99.90;;;;;;5105600;28;20040;-77
2023/01/08 13:07:16;;;;;;;3.33;0.55;;;9.20;99.90;;;;;;5089267;28;20393;-77
2023/01/08 13:09:43;;;;;;;0.30;0.20;;;9.20;99.90;;;;;;5068885;28;20051;-76
2023/01/08 13:12:13;;;;;;;1.38;0.45;;;9.20;99.90;;;;;;5051430;28;20554;-76